Time;durP1;ratioP1;P1;durP2;ratioP2;P2;SDS_P1;SDS_P2;PMS_P1;PMS_P2;Temp;Humidity;BMP_temperature;BMP_pressure;BME280_temperature;BME280_humidity;BME280_pressure;Samples;Min_cycle;Max_cycle;Signal;HPM_P1;HPM_P2
2022/08/15 00:00:13;;;;;;;13.27;6.87;;;;;;;;;;5072812;28;20012;-43
2022/08/15 00:02:43;;;;;;;13.13;6.72;;;;;;;;;;5072062;28;20040;-44
2022/08/15 00:05:22;;;;;;;10.40;6.72;;;;;;;;;;5072244;28;20340;-44
2022/08/15 00:07:48;;;;;;;8.17;6.10;;;;;;;;;;5072583;28;20107;-43
2022/08/15 00:10:15;;;;;;;8.55;6.25;;;;;;;;;;5072299;28;20664;-43
2022/08/15 00:12:40;;;;;;;8.93;6.70;;;;;;;;;;5071042;28;20464;-45
2022/08/15 00:15:07;;;;;;;8.05;6.00;;;;;;;;;;5072084;28;20039;-43
2022/08/15 00:17:34;;;;;;;10.95;5.95;;;;;;;;;;5072339;28;20016;-43
2022/08/15 00:20:00;;;;;;;7.32;5.60;;;;;;;;;;5071841;28;20441;-44
2022/08/15 00:22:25;;;;;;;8.35;6.10;;;;;;;;;;5071536;28;20095;-44
2022/08/15 00:24:51;;;;;;;8.60;6.45;;;;;;;;;;5071057;28;20021;-44
2022/08/15 00:27:16;;;;;;;9.18;6.20;;;;;;;;;;5071011;28;20024;-43
2022/08/15 00:29:41;;;;;;;12.18;7.05;;;;;;;;;;5071651;28;20059;-45
2022/08/15 00:32:12;;;;;;;12.77;6.82;;;;;;;;;;5070773;28;20020;-43
2022/08/15 00:34:37;;;;;;;10.35;6.60;;;;;;;;;;5071525;28;20037;-43
2022/08/15 00:37:03;;;;;;;8.75;6.72;;;;;;;;;;5071530;28;20016;-47
2022/08/15 00:39:28;;;;;;;10.30;6.72;;;;;;;;;;5071677;28;20021;-44
2022/08/15 00:41:56;;;;;;;14.35;7.13;;;;;;;;;;5070731;28;20016;-43
2022/08/15 00:44:26;;;;;;;11.63;7.15;;;;;;;;;;5070710;28;20020;-45
2022/08/15 00:46:56;;;;;;;14.27;7.10;;;;;;;;;;5071722;28;20042;-44
2022/08/15 00:49:23;;;;;;;13.20;7.00;;;;;;;;;;5071812;28;20021;-43
2022/08/15 00:52:00;;;;;;;12.13;6.90;;;;;;;;;;5072180;28;20470;-45
2022/08/15 00:54:39;;;;;;;12.75;7.03;;;;;;;;;;5071383;28;20039;-43
2022/08/15 00:57:04;;;;;;;9.20;6.07;;;;;;;;;;5071329;28;20480;-43
2022/08/15 00:59:32;;;;;;;9.80;7.10;;;;;;;;;;5070369;28;20341;-43
2022/08/15 01:01:59;;;;;;;7.85;6.82;;;;;;;;;;5071735;28;20238;-44
2022/08/15 01:04:25;;;;;;;10.30;7.47;;;;;;;;;;5071653;28;20013;-45
2022/08/15 01:06:50;;;;;;;11.45;7.70;;;;;;;;;;5070503;28;20391;-45
2022/08/15 01:09:16;;;;;;;13.55;7.82;;;;;;;;;;5070345;28;20020;-44
2022/08/15 01:12:00;;;;;;;9.98;7.18;;;;;;;;;;5071938;28;20016;-44
2022/08/15 01:14:26;;;;;;;8.93;6.55;;;;;;;;;;5071196;28;20029;-44
2022/08/15 01:16:52;;;;;;;11.10;7.38;;;;;;;;;;5071118;28;20432;-44
2022/08/15 01:19:17;;;;;;;9.88;6.95;;;;;;;;;;5070410;28;20482;-43
2022/08/15 01:22:06;;;;;;;17.00;7.05;;;;;;;;;;5071621;28;20020;-43
2022/08/15 01:24:37;;;;;;;8.90;6.78;;;;;;;;;;5058602;28;20383;-45
2022/08/15 01:27:03;;;;;;;8.02;6.32;;;;;;;;;;5070392;28;20051;-43
2022/08/15 01:29:29;;;;;;;7.78;6.38;;;;;;;;;;5071268;28;20025;-44
2022/08/15 01:31:54;;;;;;;8.55;6.70;;;;;;;;;;5071155;28;20020;-45
2022/08/15 01:34:19;;;;;;;11.68;7.35;;;;;;;;;;5070985;28;20463;-44
2022/08/15 01:36:46;;;;;;;7.45;5.93;;;;;;;;;;5071357;28;20169;-44
2022/08/15 01:39:12;;;;;;;9.32;6.80;;;;;;;;;;5069743;28;20585;-43
2022/08/15 01:41:57;;;;;;;8.88;6.65;;;;;;;;;;5069906;28;20115;-45
2022/08/15 01:44:26;;;;;;;9.98;7.07;;;;;;;;;;5055679;28;20059;-43
2022/08/15 01:46:57;;;;;;;8.35;6.70;;;;;;;;;;5071330;28;20493;-46
2022/08/15 01:49:28;;;;;;;9.77;6.75;;;;;;;;;;5069629;28;20055;-44
2022/08/15 01:51:55;;;;;;;12.63;7.47;;;;;;;;;;5069423;28;20059;-44
2022/08/15 01:54:23;;;;;;;9.43;7.18;;;;;;;;;;5070064;28;20032;-43
2022/08/15 01:56:49;;;;;;;10.20;6.88;;;;;;;;;;5070711;28;20353;-45
2022/08/15 01:59:18;;;;;;;11.45;7.13;;;;;;;;;;5071294;28;20073;-44
2022/08/15 02:01:55;;;;;;;8.75;6.75;;;;;;;;;;5069426;28;20070;-43
2022/08/15 02:04:28;;;;;;;10.07;7.15;;;;;;;;;;5069557;28;20036;-44
2022/08/15 02:06:54;;;;;;;9.55;6.97;;;;;;;;;;5072936;28;20016;-44
2022/08/15 02:09:20;;;;;;;11.90;7.93;;;;;;;;;;5075169;28;20028;-44
2022/08/15 02:11:45;;;;;;;9.02;6.72;;;;;;;;;;5074911;28;20058;-44
2022/08/15 02:14:11;;;;;;;9.10;7.28;;;;;;;;;;5074553;28;20032;-43
2022/08/15 02:16:38;;;;;;;8.77;6.65;;;;;;;;;;5074490;28;20040;-44
2022/08/15 02:19:04;;;;;;;12.35;7.32;;;;;;;;;;5074503;28;20020;-43
2022/08/15 02:21:30;;;;;;;11.43;7.30;;;;;;;;;;5074471;28;20048;-45
2022/08/15 02:23:56;;;;;;;10.88;7.65;;;;;;;;;;5074306;28;20375;-43
2022/08/15 02:26:22;;;;;;;9.32;7.30;;;;;;;;;;5073237;28;20025;-44
2022/08/15 02:28:48;;;;;;;9.40;7.63;;;;;;;;;;5073943;28;20075;-43
2022/08/15 02:31:16;;;;;;;10.73;7.22;;;;;;;;;;5074510;28;20467;-44
2022/08/15 02:33:53;;;;;;;10.45;7.13;;;;;;;;;;5072503;28;20032;-44
2022/08/15 02:36:19;;;;;;;9.68;7.15;;;;;;;;;;5074053;28;20443;-43
2022/08/15 02:38:45;;;;;;;10.20;7.20;;;;;;;;;;5072633;28;20024;-44
2022/08/15 02:41:12;;;;;;;9.77;6.78;;;;;;;;;;5073844;28;20422;-43
2022/08/15 02:43:44;;;;;;;12.50;7.30;;;;;;;;;;5072363;28;20388;-43
2022/08/15 02:46:10;;;;;;;12.02;7.65;;;;;;;;;;5072540;28;20018;-44
2022/08/15 02:48:35;;;;;;;9.95;7.40;;;;;;;;;;5074285;28;20015;-44
2022/08/15 02:51:01;;;;;;;16.33;8.10;;;;;;;;;;5074485;28;20024;-43
2022/08/15 02:53:26;;;;;;;11.13;7.38;;;;;;;;;;5073954;28;20027;-43
2022/08/15 02:55:52;;;;;;;13.23;7.47;;;;;;;;;;5073699;28;20082;-43
2022/08/15 02:58:17;;;;;;;9.63;7.10;;;;;;;;;;5072622;28;20027;-44
2022/08/15 03:00:44;;;;;;;12.23;7.78;;;;;;;;;;5073505;28;20380;-44
2022/08/15 03:03:11;;;;;;;20.33;9.05;;;;;;;;;;5072090;28;20111;-44
2022/08/15 03:05:39;;;;;;;14.43;8.43;;;;;;;;;;5073504;28;20038;-44
2022/08/15 03:08:05;;;;;;;16.73;8.25;;;;;;;;;;5072284;28;20017;-43
2022/08/15 03:10:30;;;;;;;23.90;9.85;;;;;;;;;;5072441;28;20021;-46
2022/08/15 03:13:01;;;;;;;16.02;8.48;;;;;;;;;;5073482;28;20091;-44
2022/08/15 03:15:31;;;;;;;12.30;8.63;;;;;;;;;;5073239;28;20111;-43
2022/08/15 03:17:57;;;;;;;22.70;8.45;;;;;;;;;;5071384;28;20021;-44
2022/08/15 03:20:23;;;;;;;28.45;8.93;;;;;;;;;;5073589;28;20543;-45
2022/08/15 03:22:49;;;;;;;13.93;7.68;;;;;;;;;;5073337;28;20048;-43
2022/08/15 03:25:16;;;;;;;15.43;8.45;;;;;;;;;;5071814;28;20016;-43
2022/08/15 03:27:42;;;;;;;16.55;7.78;;;;;;;;;;5071680;28;20017;-45
2022/08/15 03:30:09;;;;;;;17.17;8.38;;;;;;;;;;5071875;28;20028;-44
2022/08/15 03:32:41;;;;;;;13.85;8.18;;;;;;;;;;5073060;28;20025;-43
2022/08/15 03:35:07;;;;;;;26.45;8.73;;;;;;;;;;5071943;28;20055;-44
2022/08/15 03:37:32;;;;;;;19.30;9.30;;;;;;;;;;5071434;28;20487;-44
2022/08/15 03:39:57;;;;;;;31.50;9.55;;;;;;;;;;5071320;28;20440;-43
2022/08/15 03:42:25;;;;;;;24.27;10.13;;;;;;;;;;5072934;28;20024;-44
2022/08/15 03:44:50;;;;;;;33.88;9.63;;;;;;;;;;5071497;28;20020;-46
2022/08/15 03:47:15;;;;;;;22.25;9.65;;;;;;;;;;5073016;28;20391;-43
2022/08/15 03:49:41;;;;;;;21.63;10.10;;;;;;;;;;5073361;28;20492;-44
2022/08/15 03:52:07;;;;;;;20.42;9.60;;;;;;;;;;5072876;28;20246;-44
2022/08/15 03:54:32;;;;;;;33.17;9.90;;;;;;;;;;5071128;28;20035;-43
2022/08/15 03:56:57;;;;;;;32.23;10.83;;;;;;;;;;5072355;28;20111;-44
2022/08/15 03:59:23;;;;;;;24.50;9.63;;;;;;;;;;5072506;28;20233;-43
2022/08/15 04:01:49;;;;;;;22.07;8.00;;;;;;;;;;5072548;28;20233;-45
2022/08/15 04:04:14;;;;;;;32.88;9.23;;;;;;;;;;5072803;28;20238;-43
2022/08/15 04:06:40;;;;;;;27.77;8.95;;;;;;;;;;5072758;28;20047;-44
2022/08/15 04:09:06;;;;;;;32.70;10.52;;;;;;;;;;5071092;28;20017;-45
2022/08/15 04:11:31;;;;;;;29.10;10.27;;;;;;;;;;5072316;28;20452;-44
2022/08/15 04:13:57;;;;;;;22.67;9.88;;;;;;;;;;5072214;28;20048;-44
2022/08/15 04:16:23;;;;;;;38.83;11.73;;;;;;;;;;5072474;28;20045;-44
2022/08/15 04:18:49;;;;;;;19.83;10.15;;;;;;;;;;5072237;28;20042;-45
2022/08/15 04:21:14;;;;;;;21.50;9.63;;;;;;;;;;5070690;28;20111;-43
2022/08/15 04:23:44;;;;;;;20.38;10.00;;;;;;;;;;5072520;28;20021;-44
2022/08/15 04:26:10;;;;;;;20.50;9.68;;;;;;;;;;5072365;28;20103;-43
2022/08/15 04:28:35;;;;;;;33.17;10.35;;;;;;;;;;5071983;28;20063;-43
2022/08/15 04:31:03;;;;;;;20.23;9.82;;;;;;;;;;5070267;28;20020;-43
2022/08/15 04:33:29;;;;;;;20.83;9.15;;;;;;;;;;5071191;28;20020;-43
2022/08/15 04:35:56;;;;;;;24.55;9.95;;;;;;;;;;5071835;28;20028;-44
2022/08/15 04:38:22;;;;;;;22.30;9.10;;;;;;;;;;5071967;28;20075;-43
2022/08/15 04:40:47;;;;;;;32.10;10.60;;;;;;;;;;5072055;28;20025;-43
2022/08/15 04:43:13;;;;;;;24.52;10.02;;;;;;;;;;5071612;28;20028;-44
2022/08/15 04:45:40;;;;;;;15.57;8.70;;;;;;;;;;5072096;28;20440;-43
2022/08/15 04:48:06;;;;;;;22.08;7.93;;;;;;;;;;5071374;28;20430;-44
2022/08/15 04:50:34;;;;;;;26.67;7.88;;;;;;;;;;5071650;28;20017;-45
2022/08/15 04:53:00;;;;;;;29.02;9.77;;;;;;;;;;5071347;28;20036;-44
2022/08/15 04:55:26;;;;;;;36.67;11.35;;;;;;;;;;5071065;28;20390;-44
2022/08/15 04:57:52;;;;;;;23.30;10.38;;;;;;;;;;5070420;28;20065;-44
2022/08/15 05:00:21;;;;;;;23.20;9.43;;;;;;;;;;5071619;28;20025;-44
2022/08/15 05:02:58;;;;;;;19.38;8.70;;;;;;;;;;5071290;28;20044;-44
2022/08/15 05:05:24;;;;;;;15.73;7.68;;;;;;;;;;5070386;28;20027;-44
2022/08/15 05:07:49;;;;;;;19.85;9.15;;;;;;;;;;5070358;28;20100;-43
2022/08/15 05:10:14;;;;;;;48.38;21.23;;;;;;;;;;5070298;28;20020;-44
2022/08/15 05:12:40;;;;;;;30.73;14.43;;;;;;;;;;5070980;28;20024;-43
2022/08/15 05:15:06;;;;;;;27.58;12.52;;;;;;;;;;5069913;28;20031;-42
2022/08/15 05:17:31;;;;;;;24.17;12.55;;;;;;;;;;5071706;28;20079;-43
2022/08/15 05:19:57;;;;;;;19.63;12.70;;;;;;;;;;5071617;28;20494;-43
2022/08/15 05:22:22;;;;;;;24.95;12.10;;;;;;;;;;5070367;28;20033;-42
2022/08/15 05:24:47;;;;;;;14.57;8.70;;;;;;;;;;5070181;28;20044;-43
2022/08/15 05:27:12;;;;;;;16.37;9.00;;;;;;;;;;5071510;28;20265;-43
2022/08/15 05:29:38;;;;;;;11.45;7.38;;;;;;;;;;5070488;28;20253;-40
2022/08/15 05:32:05;;;;;;;13.00;7.15;;;;;;;;;;5071407;28;20456;-41
2022/08/15 05:34:31;;;;;;;10.27;7.00;;;;;;;;;;5071272;28;20487;-42
2022/08/15 05:36:56;;;;;;;11.60;6.97;;;;;;;;;;5069715;28;20048;-41
2022/08/15 05:39:23;;;;;;;10.73;6.45;;;;;;;;;;5069727;28;20024;-42
2022/08/15 05:42:09;;;;;;;17.33;8.25;;;;;;;;;;5072076;28;20418;-44
2022/08/15 05:44:35;;;;;;;12.73;6.75;;;;;;;;;;5072566;28;20032;-43
2022/08/15 05:47:03;;;;;;;10.50;7.80;;;;;;;;;;5070642;28;20020;-41
2022/08/15 05:49:28;;;;;;;15.70;7.03;;;;;;;;;;5073251;28;20112;-44
2022/08/15 05:52:12;;;;;;;12.07;7.13;;;;;;;;;;5061070;28;20112;-45
2022/08/15 05:54:53;;;;;;;15.77;8.68;;;;;;;;;;5054249;28;20300;-43
2022/08/15 05:57:30;;;;;;;10.15;8.13;;;;;;;;;;5054010;28;20032;-43
2022/08/15 05:59:58;;;;;;;11.98;7.93;;;;;;;;;;5054926;28;20025;-43
2022/08/15 06:02:41;;;;;;;14.63;7.97;;;;;;;;;;5054434;28;20063;-43
2022/08/15 06:05:15;;;;;;;10.82;7.05;;;;;;;;;;5050046;28;20029;-46
2022/08/15 06:07:44;;;;;;;10.68;7.13;;;;;;;;;;5069149;28;20052;-45
2022/08/15 06:10:25;;;;;;;11.85;6.82;;;;;;;;;;5069936;28;20058;-47
2022/08/15 06:12:53;;;;;;;14.57;7.60;;;;;;;;;;5067313;28;20024;-42
2022/08/15 06:15:23;;;;;;;11.90;7.05;;;;;;;;;;5070369;28;20036;-45
2022/08/15 06:18:09;;;;;;;13.35;6.95;;;;;;;;;;5060268;28;20611;-42
2022/08/15 06:20:43;;;;;;;11.02;7.15;;;;;;;;;;5076978;28;20024;-45
2022/08/15 06:23:08;;;;;;;10.27;7.13;;;;;;;;;;5071779;28;20111;-43
2022/08/15 06:25:40;;;;;;;12.73;7.70;;;;;;;;;;5071062;28;20107;-48
2022/08/15 06:28:24;;;;;;;11.32;7.75;;;;;;;;;;5072382;28;20027;-45
2022/08/15 06:31:08;;;;;;;18.85;7.40;;;;;;;;;;5074703;28;20032;-41
2022/08/15 06:33:40;;;;;;;9.95;6.93;;;;;;;;;;5067824;28;20024;-46
2022/08/15 06:36:09;;;;;;;14.20;6.57;;;;;;;;;;5076936;28;20024;-41
2022/08/15 06:38:34;;;;;;;;;;;;;;;;;;5088226;28;20025;-43
2022/08/15 06:40:59;;;;;;;10.90;6.60;;;;;;;;;;5069479;28;19908;-44
2022/08/15 06:43:25;;;;;;;8.88;6.97;;;;;;;;;;5071790;28;20791;-41
2022/08/15 06:45:53;;;;;;;13.40;6.65;;;;;;;;;;5062100;28;20154;-44
2022/08/15 06:48:20;;;;;;;11.50;6.85;;;;;;;;;;5083941;28;20016;-46
2022/08/15 06:50:50;;;;;;;10.73;7.13;;;;;;;;;;5073769;28;20483;-44
2022/08/15 06:53:25;;;;;;;8.93;7.38;;;;;;;;;;5063185;28;20483;-43
2022/08/15 06:56:06;;;;;;;41.88;13.65;;;;;;;;;;5068671;28;20048;-40
2022/08/15 06:58:47;;;;;;;22.52;9.02;;;;;;;;;;5083481;28;20028;-44
2022/08/15 07:01:22;;;;;;;16.55;8.35;;;;;;;;;;5069017;28;20036;-44
2022/08/15 07:03:59;;;;;;;70.30;35.00;;;;;;;;;;5091703;28;20065;-45
2022/08/15 07:06:51;;;;;;;34.90;8.30;;;;;;;;;;5073778;28;20166;-46
2022/08/15 07:09:43;;;;;;;13.20;6.63;;;;;;;;;;5067189;28;20043;-43
2022/08/15 07:12:20;;;;;;;9.43;6.25;;;;;;;;;;5066026;28;20074;-43
2022/08/15 07:14:48;;;;;;;12.68;7.13;;;;;;;;;;5060488;28;20396;-43
2022/08/15 07:17:27;;;;;;;10.48;6.38;;;;;;;;;;5061217;28;20443;-45
2022/08/15 07:19:53;;;;;;;9.70;6.53;;;;;;;;;;5071842;28;20063;-45
2022/08/15 07:22:19;;;;;;;8.98;6.85;;;;;;;;;;5082533;28;20027;-43
2022/08/15 07:24:49;;;;;;;10.80;6.78;;;;;;;;;;5080942;28;20047;-45
2022/08/15 07:27:15;;;;;;;19.70;7.60;;;;;;;;;;5067062;28;20077;-44
2022/08/15 07:29:43;;;;;;;49.53;11.05;;;;;;;;;;5071059;28;20510;-46
2022/08/15 07:32:11;;;;;;;9.85;6.50;;;;;;;;;;5060061;28;20100;-44
2022/08/15 07:34:39;;;;;;;29.60;10.80;;;;;;;;;;5067449;28;20296;-43
2022/08/15 07:37:06;;;;;;;13.85;6.28;;;;;;;;;;5071115;28;20020;-44
2022/08/15 07:39:36;;;;;;;11.07;5.75;;;;;;;;;;5071728;28;20021;-44
2022/08/15 07:42:11;;;;;;;11.07;6.82;;;;;;;;;;5072228;28;20105;-44
2022/08/15 07:44:36;;;;;;;7.75;6.28;;;;;;;;;;5055175;28;20093;-44
2022/08/15 07:47:09;;;;;;;11.43;7.27;;;;;;;;;;5082274;28;20792;-44
2022/08/15 07:49:37;;;;;;;14.45;7.20;;;;;;;;;;5069819;28;20348;-44
2022/08/15 07:52:05;;;;;;;10.33;6.10;;;;;;;;;;5078739;28;20415;-45
2022/08/15 07:54:36;;;;;;;7.68;6.00;;;;;;;;;;5076212;28;20454;-45
2022/08/15 07:57:03;;;;;;;11.45;6.45;;;;;;;;;;5070480;28;20503;-44
2022/08/15 07:59:30;;;;;;;20.13;8.02;;;;;;;;;;5071159;28;20029;-45
2022/08/15 08:02:02;;;;;;;9.40;5.60;;;;;;;;;;5070604;28;20491;-43
2022/08/15 08:04:28;;;;;;;14.30;6.18;;;;;;;;;;5080287;28;20047;-40
2022/08/15 08:07:00;;;;;;;15.32;6.53;;;;;;;;;;5076435;28;20039;-45
2022/08/15 08:09:32;;;;;;;21.52;9.10;;;;;;;;;;5068325;28;20024;-42
2022/08/15 08:12:09;;;;;;;16.42;6.47;;;;;;;;;;5069909;28;20086;-43
2022/08/15 08:14:43;;;;;;;9.73;5.85;;;;;;;;;;5076610;28;20040;-38
2022/08/15 08:17:21;;;;;;;13.13;6.03;;;;;;;;;;5072049;28;20024;-38
2022/08/15 08:20:08;;;;;;;6.93;5.03;;;;;;;;;;5069468;28;20056;-43
2022/08/15 08:22:42;;;;;;;7.57;5.25;;;;;;;;;;5082637;28;20024;-45
2022/08/15 08:25:28;;;;;;;9.32;5.00;;;;;;;;;;5074967;28;20371;-43
2022/08/15 08:27:56;;;;;;;11.07;5.22;;;;;;;;;;5074097;28;20101;-42
2022/08/15 08:30:21;;;;;;;;;;;;;;;;;;5070219;28;20024;-42
2022/08/15 08:33:01;;;;;;;6.93;5.30;;;;;;;;;;5084331;28;20304;-44
2022/08/15 08:35:39;;;;;;;6.82;5.80;;;;;;;;;;5082448;28;20042;-42
2022/08/15 08:38:07;;;;;;;7.00;5.30;;;;;;;;;;5085459;28;20036;-45
2022/08/15 08:43:23;;;;;;;11.05;5.75;;;;;;;;;;5088347;28;20107;-43
2022/08/15 08:45:48;;;;;;;5.97;5.00;;;;;;;;;;5072308;28;20016;-43
2022/08/15 08:48:15;;;;;;;7.27;5.27;;;;;;;;;;5091074;28;20684;-41
2022/08/15 08:50:41;;;;;;;7.70;5.25;;;;;;;;;;5069913;28;20020;-43
2022/08/15 08:53:16;;;;;;;7.87;4.93;;;;;;;;;;5067035;28;20040;-43
2022/08/15 08:56:06;;;;;;;7.63;4.68;;;;;;;;;;5072712;28;22492;-44
2022/08/15 08:58:36;;;;;;;7.85;5.18;;;;;;;;;;5083165;28;20015;-40
2022/08/15 09:01:05;;;;;;;6.25;4.25;;;;;;;;;;5071551;28;20112;-45
2022/08/15 09:03:37;;;;;;;6.15;5.20;;;;;;;;;;5065439;28;20028;-45
2022/08/15 09:06:02;;;;;;;4.70;4.30;;;;;;;;;;5074095;28;20024;-41
2022/08/15 09:08:32;;;;;;;7.45;5.55;;;;;;;;;;5076331;28;20363;-42
2022/08/15 09:11:16;;;;;;;5.22;4.50;;;;;;;;;;5068587;28;20028;-41
2022/08/15 09:13:43;;;;;;;4.55;4.15;;;;;;;;;;5069140;28;20040;-44
2022/08/15 09:16:30;;;;;;;9.43;5.10;;;;;;;;;;5070152;28;20116;-41
2022/08/15 09:19:14;;;;;;;9.93;4.88;;;;;;;;;;5066323;28;20105;-43
2022/08/15 09:21:42;;;;;;;8.75;5.10;;;;;;;;;;5068751;28;20088;-42
2022/08/15 09:24:08;;;;;;;8.38;4.72;;;;;;;;;;5068272;28;20081;-43
2022/08/15 09:26:38;;;;;;;9.02;4.88;;;;;;;;;;5069565;28;20020;-44
2022/08/15 09:29:21;;;;;;;5.55;4.47;;;;;;;;;;5069077;28;20024;-40
2022/08/15 09:31:59;;;;;;;7.40;4.40;;;;;;;;;;5070233;28;20451;-42
2022/08/15 09:34:24;;;;;;;7.43;4.35;;;;;;;;;;5070115;28;20443;-44
2022/08/15 09:37:00;;;;;;;9.07;5.03;;;;;;;;;;5070466;28;20070;-44
2022/08/15 09:40:01;;;;;;;5.03;4.53;;;;;;;;;;5070042;28;20380;-45
2022/08/15 09:42:41;;;;;;;6.85;4.90;;;;;;;;;;5010930;28;20056;-42
2022/08/15 09:45:18;;;;;;;8.93;4.80;;;;;;;;;;5061667;28;20024;-46
2022/08/15 09:47:46;;;;;;;5.50;4.60;;;;;;;;;;5068641;28;20046;-43
2022/08/15 09:50:18;;;;;;;7.28;4.80;;;;;;;;;;5070352;28;20426;-43
2022/08/15 09:52:44;;;;;;;7.07;4.50;;;;;;;;;;5070138;28;20025;-42
2022/08/15 09:55:09;;;;;;;5.03;4.00;;;;;;;;;;5069798;28;20028;-42
2022/08/15 09:57:45;;;;;;;5.47;4.30;;;;;;;;;;5070396;28;20013;-42
2022/08/15 10:00:19;;;;;;;7.90;4.95;;;;;;;;;;5069066;28;20085;-43
2022/08/15 10:02:46;;;;;;;7.07;4.20;;;;;;;;;;5070150;28;20028;-43
2022/08/15 10:05:14;;;;;;;4.85;4.03;;;;;;;;;;5069398;28;20414;-45
2022/08/15 10:07:51;;;;;;;5.07;4.43;;;;;;;;;;5067412;28;20036;-45
2022/08/15 10:10:22;;;;;;;7.53;5.15;;;;;;;;;;5070367;28;20064;-44
2022/08/15 10:13:06;;;;;;;5.90;4.60;;;;;;;;;;5062120;28;20028;-43
2022/08/15 10:15:41;;;;;;;7.40;4.30;;;;;;;;;;5069933;28;20031;-43
2022/08/15 10:18:08;;;;;;;6.50;4.30;;;;;;;;;;5069687;28;20522;-44
2022/08/15 10:20:33;;;;;;;5.97;4.53;;;;;;;;;;5067615;28;20479;-43
2022/08/15 10:22:59;;;;;;;7.35;4.50;;;;;;;;;;5077651;28;20098;-43
2022/08/15 10:25:24;;;;;;;6.38;4.97;;;;;;;;;;5068148;28;20040;-44
2022/08/15 10:28:05;;;;;;;7.23;4.70;;;;;;;;;;5079856;28;20024;-44
2022/08/15 10:30:32;;;;;;;4.95;4.45;;;;;;;;;;5079596;28;20080;-45
2022/08/15 10:32:59;;;;;;;6.43;4.97;;;;;;;;;;5075995;28;20111;-45
2022/08/15 10:35:28;;;;;;;5.55;4.85;;;;;;;;;;5070338;28;20036;-44
2022/08/15 10:37:59;;;;;;;5.05;4.55;;;;;;;;;;5068430;28;20029;-45
2022/08/15 10:40:34;;;;;;;6.65;4.60;;;;;;;;;;5070437;28;20023;-45
2022/08/15 10:43:23;;;;;;;6.97;4.95;;;;;;;;;;5078265;28;20040;-44
2022/08/15 10:45:51;;;;;;;7.93;4.65;;;;;;;;;;5072039;28;20036;-43
2022/08/15 10:48:26;;;;;;;12.02;4.65;;;;;;;;;;5067828;28;20060;-44
2022/08/15 10:51:01;;;;;;;4.50;3.90;;;;;;;;;;5080020;28;20024;-44
2022/08/15 10:53:39;;;;;;;7.65;4.13;;;;;;;;;;5076492;28;20360;-44
2022/08/15 10:56:09;;;;;;;4.97;4.23;;;;;;;;;;5068311;28;20071;-43
2022/08/15 10:58:34;;;;;;;6.18;4.20;;;;;;;;;;5071493;28;20048;-43
2022/08/15 11:01:06;;;;;;;6.40;4.47;;;;;;;;;;5071400;28;20063;-42
2022/08/15 11:03:39;;;;;;;8.98;4.45;;;;;;;;;;5071446;28;20020;-45
2022/08/15 11:06:06;;;;;;;6.97;4.97;;;;;;;;;;5068872;28;20027;-45
2022/08/15 11:08:34;;;;;;;6.63;4.67;;;;;;;;;;5068166;28;20054;-41
2022/08/15 11:11:00;;;;;;;6.57;4.55;;;;;;;;;;5052614;28;20265;-43
2022/08/15 11:13:28;;;;;;;9.45;5.13;;;;;;;;;;5077997;28;20102;-44
2022/08/15 11:15:58;;;;;;;5.72;4.68;;;;;;;;;;5074424;28;20029;-43
2022/08/15 11:18:29;;;;;;;6.53;4.25;;;;;;;;;;5084807;28;20520;-44
2022/08/15 11:20:56;;;;;;;7.18;4.63;;;;;;;;;;5070539;28;20023;-44
2022/08/15 11:23:34;;;;;;;5.50;4.90;;;;;;;;;;5077464;28;20020;-43
2022/08/15 11:26:00;;;;;;;6.07;4.30;;;;;;;;;;5086101;28;20024;-43
2022/08/15 11:28:28;;;;;;;5.90;4.50;;;;;;;;;;5071405;28;20376;-44
2022/08/15 11:31:01;;;;;;;8.57;4.82;;;;;;;;;;5075458;28;20031;-43
2022/08/15 11:33:33;;;;;;;4.77;4.20;;;;;;;;;;5083127;28;20020;-46
2022/08/15 11:36:18;;;;;;;5.13;4.63;;;;;;;;;;5060826;28;20545;-45
2022/08/15 11:38:46;;;;;;;5.20;4.10;;;;;;;;;;5069946;28;20078;-45
2022/08/15 11:41:20;;;;;;;12.98;4.20;;;;;;;;;;5084113;28;20020;-45
2022/08/15 11:43:45;;;;;;;9.30;4.60;;;;;;;;;;5070892;28;20543;-43
2022/08/15 11:46:11;;;;;;;5.05;4.32;;;;;;;;;;5072957;28;20099;-45
2022/08/15 11:48:39;;;;;;;7.13;4.20;;;;;;;;;;5075998;28;20025;-45
2022/08/15 11:51:13;;;;;;;5.20;4.30;;;;;;;;;;5070086;28;20540;-43
2022/08/15 11:53:45;;;;;;;6.25;4.53;;;;;;;;;;5071767;28;20032;-45
2022/08/15 11:56:10;;;;;;;6.88;4.15;;;;;;;;;;5069448;28;20028;-44
2022/08/15 11:58:38;;;;;;;4.53;4.10;;;;;;;;;;5071471;28;20066;-44
2022/08/15 12:01:44;;;;;;;6.43;4.37;;;;;;;;;;5070441;28;20284;-44
2022/08/15 12:04:12;;;;;;;5.72;4.25;;;;;;;;;;4992743;28;20017;-44
2022/08/15 12:06:39;;;;;;;4.07;3.72;;;;;;;;;;4991383;28;20026;-44
2022/08/15 12:09:09;;;;;;;7.10;4.25;;;;;;;;;;5026912;28;20383;-42
2022/08/15 12:11:38;;;;;;;7.63;4.50;;;;;;;;;;5074694;28;20023;-44
2022/08/15 12:14:13;;;;;;;4.45;3.88;;;;;;;;;;5067956;28;20123;-43
2022/08/15 12:16:39;;;;;;;6.45;4.80;;;;;;;;;;5068212;28;20035;-45
2022/08/15 12:19:23;;;;;;;6.28;4.68;;;;;;;;;;5062556;28;20049;-44
2022/08/15 12:21:49;;;;;;;5.07;4.38;;;;;;;;;;5058217;28;20385;-45
2022/08/15 12:24:22;;;;;;;6.70;4.72;;;;;;;;;;5055008;28;20250;-42
2022/08/15 12:26:49;;;;;;;12.05;4.55;;;;;;;;;;5076523;28;20036;-45
2022/08/15 12:29:15;;;;;;;6.40;4.38;;;;;;;;;;5073205;28;20024;-43
2022/08/15 12:31:41;;;;;;;6.10;4.32;;;;;;;;;;5071379;28;20107;-43
2022/08/15 12:34:09;;;;;;;5.75;4.72;;;;;;;;;;5070965;28;20328;-44
2022/08/15 12:36:35;;;;;;;6.40;4.43;;;;;;;;;;5049839;28;20029;-41
2022/08/15 12:39:00;;;;;;;8.85;4.55;;;;;;;;;;5056398;28;20035;-38
2022/08/15 12:41:25;;;;;;;6.40;3.93;;;;;;;;;;5078749;28;20105;-39
2022/08/15 12:43:51;;;;;;;4.75;4.13;;;;;;;;;;5067928;28;20385;-40
2022/08/15 12:46:17;;;;;;;11.15;4.53;;;;;;;;;;5070186;28;20090;-44
2022/08/15 12:48:43;;;;;;;11.98;4.60;;;;;;;;;;5068626;28;20041;-43
2022/08/15 12:51:09;;;;;;;5.07;3.90;;;;;;;;;;5069365;28;20047;-44
2022/08/15 12:53:38;;;;;;;5.60;4.70;;;;;;;;;;5069173;28;20017;-43
2022/08/15 12:56:04;;;;;;;4.88;3.78;;;;;;;;;;5068781;28;20379;-46
2022/08/15 12:58:29;;;;;;;9.40;4.63;;;;;;;;;;5066368;28;20016;-45
2022/08/15 13:00:57;;;;;;;6.10;4.53;;;;;;;;;;5072538;28;20056;-43
2022/08/15 13:03:25;;;;;;;8.82;4.50;;;;;;;;;;5079723;28;20020;-42
2022/08/15 13:05:51;;;;;;;;;;;;;;;;;;5088107;28;20027;-44
2022/08/15 13:08:17;;;;;;;7.70;4.53;;;;;;;;;;5077382;28;19909;-44
2022/08/15 13:10:42;;;;;;;5.78;4.70;;;;;;;;;;5063052;28;20073;-40
2022/08/15 13:13:08;;;;;;;7.22;4.97;;;;;;;;;;5062451;28;20031;-43
2022/08/15 13:15:34;;;;;;;4.88;4.20;;;;;;;;;;5067113;28;20103;-40
2022/08/15 13:18:00;;;;;;;9.20;5.22;;;;;;;;;;5064725;28;20044;-44
2022/08/15 13:25:55;;;;;;;6.38;5.32;;;;;;;;;;5065483;28;20136;-45
2022/08/15 13:28:20;;;;;;;10.20;5.55;;;;;;;;;;5069088;28;20024;-45
2022/08/15 13:30:46;;;;;;;11.20;5.43;;;;;;;;;;5075821;28;20081;-41
2022/08/15 13:33:12;;;;;;;12.53;4.67;;;;;;;;;;5081381;28;20024;-44
2022/08/15 13:35:37;;;;;;;6.68;4.60;;;;;;;;;;5084613;28;20028;-43
2022/08/15 13:38:03;;;;;;;6.05;4.85;;;;;;;;;;5080910;28;20039;-38
2022/08/15 13:40:28;;;;;;;7.70;5.50;;;;;;;;;;5066631;28;20013;-45
2022/08/15 13:42:54;;;;;;;7.57;4.40;;;;;;;;;;5072197;28;20458;-44
2022/08/15 13:45:20;;;;;;;7.60;4.53;;;;;;;;;;5068224;28;20021;-44
2022/08/15 13:47:45;;;;;;;13.48;5.25;;;;;;;;;;5067607;28;20039;-44
2022/08/15 13:50:11;;;;;;;8.80;5.45;;;;;;;;;;5068182;28;20091;-46
2022/08/15 13:52:37;;;;;;;6.88;4.57;;;;;;;;;;5062658;28;20025;-45
2022/08/15 13:55:03;;;;;;;9.15;4.93;;;;;;;;;;5056965;28;20377;-44
2022/08/15 13:57:28;;;;;;;6.05;4.38;;;;;;;;;;5068511;28;20170;-44
2022/08/15 13:59:54;;;;;;;9.03;4.37;;;;;;;;;;5070997;28;20063;-44
2022/08/15 14:02:19;;;;;;;11.43;5.28;;;;;;;;;;5069260;28;20016;-44
2022/08/15 14:04:45;;;;;;;9.50;5.13;;;;;;;;;;5071554;28;20458;-45
2022/08/15 14:07:12;;;;;;;6.57;4.57;;;;;;;;;;5069638;28;20283;-43
2022/08/15 14:09:38;;;;;;;12.82;5.70;;;;;;;;;;5073516;28;20400;-43
2022/08/15 14:12:04;;;;;;;10.38;4.40;;;;;;;;;;5073445;28;20097;-43
2022/08/15 14:14:29;;;;;;;10.93;5.35;;;;;;;;;;5073214;28;20059;-44
2022/08/15 14:16:55;;;;;;;13.18;5.63;;;;;;;;;;5074958;28;20571;-44
2022/08/15 14:19:20;;;;;;;14.90;5.88;;;;;;;;;;5074813;28;20455;-45
2022/08/15 14:21:46;;;;;;;10.20;5.07;;;;;;;;;;5075554;28;20479;-44
2022/08/15 14:24:12;;;;;;;10.57;5.60;;;;;;;;;;5077897;28;20561;-45
2022/08/15 14:26:41;;;;;;;9.13;5.30;;;;;;;;;;5075737;28;20027;-44
2022/08/15 14:29:09;;;;;;;8.63;5.30;;;;;;;;;;5070399;28;20029;-44
2022/08/15 14:31:34;;;;;;;8.85;5.55;;;;;;;;;;5068211;28;20016;-43
2022/08/15 14:33:59;;;;;;;13.63;6.57;;;;;;;;;;5074201;28;20056;-45
2022/08/15 14:36:27;;;;;;;13.47;5.93;;;;;;;;;;5068019;28;20017;-44
2022/08/15 14:38:52;;;;;;;11.30;5.93;;;;;;;;;;5082261;28;20732;-43
2022/08/15 14:41:17;;;;;;;9.45;5.68;;;;;;;;;;5070558;28;20023;-44
2022/08/15 14:43:44;;;;;;;10.60;5.37;;;;;;;;;;5072265;28;20021;-44
2022/08/15 14:46:10;;;;;;;9.07;6.78;;;;;;;;;;5072429;28;20241;-44
2022/08/15 14:48:37;;;;;;;11.25;5.20;;;;;;;;;;5073340;28;20043;-44
2022/08/15 14:51:03;;;;;;;7.63;5.88;;;;;;;;;;5072480;28;20032;-47
2022/08/15 14:53:30;;;;;;;9.70;5.53;;;;;;;;;;5081464;28;20020;-44
2022/08/15 14:55:56;;;;;;;7.95;5.47;;;;;;;;;;5074340;28;20131;-44